sensor_id;sensor_type;location;lat;lon;timestamp;pressure;altitude;pressure_sealevel;temperature;humidity
12073;BME280;6098;49.004;8.372;2024-01-25T00:11:35;101673.98;;;11.59;77.39
12073;BME280;6098;49.004;8.372;2024-01-25T00:26:26;101673.49;;;11.61;78.04
12073;BME280;6098;49.004;8.372;2024-01-25T00:41:18;101676.55;;;11.63;78.44
12073;BME280;6098;49.004;8.372;2024-01-25T00:56:10;101669.14;;;11.59;79.26
12073;BME280;6098;49.004;8.372;2024-01-25T01:11:03;101663.88;;;11.55;79.71
12073;BME280;6098;49.004;8.372;2024-01-25T01:25:54;101670.52;;;11.56;79.63
12073;BME280;6098;49.004;8.372;2024-01-25T01:40:46;101676.27;;;11.56;79.22
12073;BME280;6098;49.004;8.372;2024-01-25T01:55:37;101683.19;;;11.63;79.03
12073;BME280;6098;49.004;8.372;2024-01-25T02:10:28;101668.12;;;11.66;78.88
12073;BME280;6098;49.004;8.372;2024-01-25T02:25:20;101664.67;;;11.60;78.19
12073;BME280;6098;49.004;8.372;2024-01-25T02:40:12;101688.05;;;11.64;77.22
12073;BME280;6098;49.004;8.372;2024-01-25T02:55:03;101684.24;;;11.56;76.74
12073;BME280;6098;49.004;8.372;2024-01-25T03:09:54;101680.34;;;11.52;74.44
12073;BME280;6098;49.004;8.372;2024-01-25T03:24:46;101690.69;;;11.44;74.49
12073;BME280;6098;49.004;8.372;2024-01-25T03:39:39;101714.66;;;11.40;73.44
12073;BME280;6098;49.004;8.372;2024-01-25T03:54:30;101728.94;;;11.35;73.32
12073;BME280;6098;49.004;8.372;2024-01-25T04:09:22;101747.59;;;11.33;73.62
12073;BME280;6098;49.004;8.372;2024-01-25T04:24:15;101747.60;;;11.31;73.45
12073;BME280;6098;49.004;8.372;2024-01-25T04:39:05;101755.20;;;11.28;71.26
12073;BME280;6098;49.004;8.372;2024-01-25T04:53:57;101757.92;;;11.23;72.57
12073;BME280;6098;49.004;8.372;2024-01-25T05:08:50;101775.44;;;11.11;73.18
12073;BME280;6098;49.004;8.372;2024-01-25T05:23:41;101779.83;;;10.88;74.53
12073;BME280;6098;49.004;8.372;2024-01-25T05:38:33;101783.32;;;10.66;75.63
12073;BME280;6098;49.004;8.372;2024-01-25T05:53:24;101809.58;;;10.54;76.28
12073;BME280;6098;49.004;8.372;2024-01-25T06:08:14;101792.00;;;10.21;78.37
12073;BME280;6098;49.004;8.372;2024-01-25T06:23:04;101794.44;;;10.01;80.19
12073;BME280;6098;49.004;8.372;2024-01-25T06:37:56;101794.19;;;9.89;81.93
12073;BME280;6098;49.004;8.372;2024-01-25T06:52:47;101783.86;;;9.68;84.45
12073;BME280;6098;49.004;8.372;2024-01-25T07:07:37;101790.77;;;9.47;88.29
12073;BME280;6098;49.004;8.372;2024-01-25T07:22:29;101779.94;;;9.29;93.88
12073;BME280;6098;49.004;8.372;2024-01-25T07:37:21;101809.37;;;9.38;95.23
12073;BME280;6098;49.004;8.372;2024-01-25T07:52:12;101846.02;;;9.34;95.86
12073;BME280;6098;49.004;8.372;2024-01-25T08:07:04;101836.26;;;9.39;97.33
12073;BME280;6098;49.004;8.372;2024-01-25T08:21:55;101839.31;;;9.44;98.44
12073;BME280;6098;49.004;8.372;2024-01-25T08:36:48;101833.02;;;9.53;97.67
12073;BME280;6098;49.004;8.372;2024-01-25T08:51:41;101823.52;;;9.74;96.95
12073;BME280;6098;49.004;8.372;2024-01-25T09:06:33;101836.93;;;9.94;95.84
12073;BME280;6098;49.004;8.372;2024-01-25T09:21:26;101850.22;;;10.27;93.71
12073;BME280;6098;49.004;8.372;2024-01-25T09:36:20;101854.19;;;10.56;90.91
12073;BME280;6098;49.004;8.372;2024-01-25T09:51:13;101859.72;;;10.69;88.83
12073;BME280;6098;49.004;8.372;2024-01-25T10:06:05;101864.13;;;10.97;87.04
12073;BME280;6098;49.004;8.372;2024-01-25T10:20:58;101853.86;;;11.27;83.77
12073;BME280;6098;49.004;8.372;2024-01-25T10:35:52;101869.26;;;11.57;79.62
12073;BME280;6098;49.004;8.372;2024-01-25T10:50:42;101856.93;;;11.76;78.24
12073;BME280;6098;49.004;8.372;2024-01-25T11:05:35;101835.16;;;11.81;76.67
12073;BME280;6098;49.004;8.372;2024-01-25T11:20:27;101832.09;;;11.79;76.64
12073;BME280;6098;49.004;8.372;2024-01-25T11:35:17;101813.91;;;11.80;77.13
12073;BME280;6098;49.004;8.372;2024-01-25T11:50:09;101798.64;;;11.70;78.16
12073;BME280;6098;49.004;8.372;2024-01-25T12:05:01;101763.18;;;11.71;75.94
12073;BME280;6098;49.004;8.372;2024-01-25T12:19:56;101751.69;;;11.91;74.42
12073;BME280;6098;49.004;8.372;2024-01-25T12:34:56;101726.13;;;11.84;73.81
12073;BME280;6098;49.004;8.372;2024-01-25T12:49:51;101726.36;;;11.94;72.13
12073;BME280;6098;49.004;8.372;2024-01-25T13:04:44;101708.11;;;12.16;72.11
12073;BME280;6098;49.004;8.372;2024-01-25T13:19:35;101684.69;;;12.31;71.43
12073;BME280;6098;49.004;8.372;2024-01-25T13:34:28;101667.75;;;12.35;70.81
12073;BME280;6098;49.004;8.372;2024-01-25T13:49:22;101670.66;;;12.26;71.16
12073;BME280;6098;49.004;8.372;2024-01-25T14:04:14;101661.30;;;12.27;72.90
12073;BME280;6098;49.004;8.372;2024-01-25T14:19:06;101659.77;;;12.19;74.60
12073;BME280;6098;49.004;8.372;2024-01-25T14:33:56;101640.06;;;12.09;76.43
12073;BME280;6098;49.004;8.372;2024-01-25T14:48:48;101647.93;;;11.95;77.14
12073;BME280;6098;49.004;8.372;2024-01-25T15:03:38;101644.48;;;11.92;78.43
12073;BME280;6098;49.004;8.372;2024-01-25T15:18:30;101636.87;;;11.57;86.09
12073;BME280;6098;49.004;8.372;2024-01-25T15:33:21;101646.36;;;11.28;90.41
12073;BME280;6098;49.004;8.372;2024-01-25T15:48:12;101619.90;;;11.04;94.49
12073;BME280;6098;49.004;8.372;2024-01-25T16:03:04;101615.20;;;10.95;97.18
12073;BME280;6098;49.004;8.372;2024-01-25T16:17:56;101607.84;;;10.89;97.89
12073;BME280;6098;49.004;8.372;2024-01-25T16:32:47;101606.63;;;10.82;98.60
12073;BME280;6098;49.004;8.372;2024-01-25T16:47:38;101600.67;;;10.71;100.00
12073;BME280;6098;49.004;8.372;2024-01-25T17:02:31;101603.80;;;10.70;100.00
12073;BME280;6098;49.004;8.372;2024-01-25T17:17:23;101607.05;;;10.62;100.00
12073;BME280;6098;49.004;8.372;2024-01-25T17:32:15;101592.98;;;10.58;100.00
12073;BME280;6098;49.004;8.372;2024-01-25T17:47:07;101584.17;;;10.57;100.00
12073;BME280;6098;49.004;8.372;2024-01-25T18:01:59;101582.48;;;10.52;100.00
12073;BME280;6098;49.004;8.372;2024-01-25T18:16:51;101587.27;;;10.56;100.00
12073;BME280;6098;49.004;8.372;2024-01-25T18:31:44;101566.50;;;10.56;100.00
12073;BME280;6098;49.004;8.372;2024-01-25T18:46:35;101558.10;;;10.56;100.00
12073;BME280;6098;49.004;8.372;2024-01-25T19:01:27;101553.25;;;10.56;100.00
12073;BME280;6098;49.004;8.372;2024-01-25T19:16:18;101552.36;;;10.56;100.00
12073;BME280;6098;49.004;8.372;2024-01-25T19:31:10;101557.04;;;10.44;100.00
12073;BME280;6098;49.004;8.372;2024-01-25T19:46:02;101553.88;;;10.46;100.00
12073;BME280;6098;49.004;8.372;2024-01-25T20:00:56;101553.35;;;10.51;100.00
12073;BME280;6098;49.004;8.372;2024-01-25T20:15:50;101550.15;;;10.56;100.00
12073;BME280;6098;49.004;8.372;2024-01-25T20:30:43;101559.88;;;10.56;100.00
12073;BME280;6098;49.004;8.372;2024-01-25T20:45:36;101552.69;;;10.63;100.00
12073;BME280;6098;49.004;8.372;2024-01-25T21:00:28;101547.50;;;10.57;100.00
12073;BME280;6098;49.004;8.372;2024-01-25T21:15:21;101541.75;;;10.56;100.00
12073;BME280;6098;49.004;8.372;2024-01-25T21:30:14;101517.02;;;10.56;100.00
12073;BME280;6098;49.004;8.372;2024-01-25T21:45:07;101512.55;;;10.58;100.00
12073;BME280;6098;49.004;8.372;2024-01-25T21:59:59;101516.20;;;10.53;100.00
12073;BME280;6098;49.004;8.372;2024-01-25T22:14:45;101523.63;;;10.57;100.00
12073;BME280;6098;49.004;8.372;2024-01-25T22:29:37;101516.84;;;10.65;100.00
12073;BME280;6098;49.004;8.372;2024-01-25T22:44:29;101515.04;;;10.66;100.00
12073;BME280;6098;49.004;8.372;2024-01-25T22:59:21;101534.08;;;10.65;100.00
12073;BME280;6098;49.004;8.372;2024-01-25T23:14:24;101520.74;;;10.69;100.00
12073;BME280;6098;49.004;8.372;2024-01-25T23:29:16;101537.98;;;10.69;100.00
12073;BME280;6098;49.004;8.372;2024-01-25T23:44:08;101541.95;;;10.69;100.00
12073;BME280;6098;49.004;8.372;2024-01-25T23:59:03;101534.73;;;10.76;100.00
